Historyczne dane pomiarowe

Dodano dane terminowe – wersja testowa.

Dane z okresu 1951-2019

Wersja bazy: 1.34 [2019-03-16, lista zmian], aktualizacja planowana na 2019-04-15

Dane meteo z obszaru Polski uzyskane na podstawie danych udostępnionych przez Instytut Meteorologii i Gospodarki Wodnej – Państwowy Instytut Badawczy.

 

Wybierz Datę:    

       

TemperaturaWilgotnośćWiatrCiśnienieOpadyŚniegCzas trwania zjawisk
 Stacja t tx tn tng RH VA  wxwx mslp ppp RRR   cm mm wxwxwxwxwxwxwx
1961-08-14 13.5 18.8 8.3 7.2 74.3- 2.3 2.0---- 0.0------------
1961-08-13 12.5 19.5 10.6 5.5 82.0- 3.3 1.0---- 0.0------------
1961-08-12 15.8 21.9 12.3 8.4 93.3- 4.0 2.0---- 0.0------------
1961-08-11 15.6 17.7 14.3 13.3 97.3- 8.0 1.3---- 4.7------------
1961-08-10 17.5 21.8 12.7 7.4 81.3- 5.0 1.7---- 3.5------------
1961-08-09 17.4 25.0 14.8 11.3 82.0- 3.3 1.0---- 0.0------------
1961-08-08 15.8 21.1 10.8 7.4 79.0- 4.0 1.3---- 0.7------------
1961-08-07 14.9 16.3 12.8 9.9 94.0- 6.7 2.0---- 4.4------------
1961-08-06 19.3 28.2 16.0 12.6 74.3- 2.3 3.0---- 0.0------------
1961-08-05 17.4 21.8 13.3 11.8 77.3- 3.0 3.7---- 3.1------------
1961-08-04 13.4 17.1 8.8 4.4 87.8- 5.3 4.3---- 1.5------------
1961-08-03 13.5 18.4 12.7 12.0 94.0- 7.3 2.7---- 1.8------------
1961-08-02 16.0 22.1 10.8 8.4 83.8- 3.7 2.7---- 8.8------------
1961-08-01 14.0 17.4 12.7 12.3 96.3- 7.7 2.3---- 11.0------------
1961-07-31 14.2 17.2 13.1 6.8 96.5- 7.3 2.0---- 12.2------------
1961-07-30 16.1 18.4 10.3 6.7 79.3- 7.0 1.0---- 1.0------------
1961-07-29 14.1 17.8 11.8 10.6 84.3- 6.3 1.7---- 0.0------------
1961-07-28 13.7 17.4 12.3 8.9 94.5- 8.0 1.0---- 21.2------------
1961-07-27 17.2 22.2 11.3 13.3 74.0- 7.3 3.0---- 0.0------------
1961-07-26 16.4 18.4 11.7 10.6 81.5- 8.0 3.7---- 2.1------------
1961-07-25 14.9 18.2 11.3 7.6 73.8- 7.3 2.3---- 1.3------------
1961-07-24 13.5 17.9 12.3 9.9 85.0- 5.7 2.7---- 0.0------------
1961-07-23 15.6 18.8 14.1 11.3 77.8- 6.7 5.0---- 1.3------------
1961-07-22 15.3 19.9 12.8 11.4 83.8- 7.0 4.7---- 0.0------------
1961-07-21 14.5 18.4 11.3 6.9 92.0- 7.0 2.7---- 4.2------------
1961-07-20 16.0 21.4 10.3 6.4 81.8- 2.0 2.3---- 0.6------------
1961-07-19 14.7 19.8 11.5 6.9 85.3- 3.7 2.0---- 3.5------------
1961-07-18 13.6 17.0 8.3 8.9 90.5- 7.7 1.0---- 3.3------------
1961-07-17 15.1 20.9 7.8 4.9 83.0- 4.3 1.3---- 0.9------------
1961-07-16 13.9 16.3 10.8 6.0 93.5- 5.3 0.7---- 0.8------------
1961-07-15 15.5 21.6 10.8 6.9 74.0- 3.3 1.3---- 0.9------------
1961-07-14 14.1 15.3 13.3 14.3 82.0- 8.0 6.7---- 0.0------------
1961-07-13 18.8 28.4 14.8 10.4 81.0- 4.0 4.0---- 18.0------------
1961-07-12 18.5 24.4 13.3 10.8 81.3- 3.0 2.3---- 0.0------------
1961-07-11 15.3 20.4 9.8 7.9 72.8- 5.0 3.0---- 0.0------------
1961-07-10 13.9 18.4 10.8 9.1 80.3- 6.3 3.0---- 1.1------------
1961-07-09 14.0 20.4 11.3 8.5 88.3- 8.0 2.7---- 9.8------------
1961-07-08 13.4 18.4 7.8 3.4 89.5- 7.7 2.3---- 5.9------------
1961-07-07 12.0 15.5 9.1 6.6 91.3- 6.0 1.7---- 7.3------------
1961-07-06 11.2 15.1 8.1 6.4 85.8- 6.7 4.3---- 3.4------------
1961-07-05 12.9 17.4 11.3 11.3 83.5- 6.0 4.7---- 0.0------------
1961-07-04 16.2 21.4 12.3 9.2 80.8- 4.7 4.0---- 2.2------------
1961-07-03 22.0 31.9 15.8 9.4 65.3- 1.7 4.0---- 0.0------------
1961-07-02 19.4 27.9 12.8 5.7 66.5- 0.0 1.3---- 0.0------------
1961-07-01 18.6 24.9 6.3 0.9 70.0- 0.3 0.7---- 0.0------------
1961-06-30 17.0 27.0 11.7 6.0 73.8- 0.0 2.3---- 0.0------------
1961-06-29 15.6 20.3 11.1 6.1 71.0- 5.3 2.3---- 0.0------------
1961-06-28 15.1 23.0 13.3 14.8 60.5- 6.3 5.7---- 0.0------------
1961-06-27 23.0 30.8 15.9 12.8 68.0- 3.7 4.3---- 2.4------------
1961-06-26 20.0 27.1 12.8 7.9 65.5- 0.0 2.3---- 0.0------------
1961-06-25 20.1 27.6 14.8 10.3 59.3- 3.3 5.0---- 0.0------------
1961-06-24 17.1 21.9 13.1 10.8 61.0- 5.0 3.3---- 0.0------------
1961-06-23 17.4 23.2 11.2 9.4 62.8- 1.7 2.7---- 0.0------------
1961-06-22 15.1 20.4 6.8 2.4 71.0- 1.7 1.7---- 0.0------------
1961-06-21 13.1 20.6 8.3 5.4 79.8- 4.3 1.7---- 3.9------------
1961-06-20 13.4 18.4 9.2 7.4 67.0- 1.7 2.7---- 0.0------------
1961-06-19 15.1 22.5 13.2 11.6 66.8- 3.3 4.3---- 0.0------------
1961-06-18 21.7 26.6 11.2 14.8 68.3- 5.3 4.3---- 0.0------------
1961-06-17 17.0 21.9 11.2 9.4 78.5- 4.0 2.0---- 0.0------------
1961-06-16 13.1 16.3 11.2 10.8 87.5- 6.0 4.7---- 0.0------------
242.1 ms

 

Źródłem pochodzenia danych jest Instytut Meteorologii i Gospodarki Wodnej – Państwowy Instytut Badawczy. Dane Instytutu Meteorologii i Gospodarki Wodnej – Państwowego Instytutu Badawczego zostały przetworzone.

Dane źródłowe można odnaleźć na stronie https://dane.imgw.pl